Decoded Metar for UKOO (ODESSA in UKRAINE) (IATA:ODS) | Meteo·Mobile Aviation Weather
aviador You're here:

UKOO Decoded Metar

ODESSA in UKRAINE
Report Time2019-02-18 10:00:00
UTC Time2019-02-18 10:28:50
Flight Rules vfr VFR
Wind350° at 16 kt
W.Decomp.*RWY 34: 15.9 kt HW 1.7 kt RCW
W.Rank350° ranks 5
Current wind is above 350° avg. (9.3)
Visibility9999 m
Phenomena:N/A
Clouds:Scattered 036 Hf
Expected CloudBase > 4,000 ft AGL from Temp-Dew spread
CeilingNone
Temp10°C (ISA -5)
Dew Point00°C (50% RH)
AAT2.3°C
QNH1022 hPa
Density Alt-673 ft
Elevation115 ft
Report Wrong Elevation
Raw Report
METAR UKOO 181000Z 35008MPS 310V020 9999 SCT036 10/M00 Q1022 R34/090060
NOSIG=

Extra information for UKOO:More info

Metar Taf Metar & Taf Last 4 Metars F.Rules Stats Wind Profile Meteogram Temp Stats Airport Information Weather charts Add Link Nearby VenuesMetar ALERT Operation Metar Decoded Social comments